createdAt,value
2019-06-10T00:01:14.873Z,90.96
2019-06-10T00:03:46.128Z,91.31
2019-06-10T00:06:17.327Z,91.11
2019-06-10T00:08:50.585Z,91.67
2019-06-10T00:11:21.455Z,92.05
2019-06-10T00:13:52.656Z,92.64
2019-06-10T00:16:23.848Z,93.13
2019-06-10T00:18:55.062Z,92.85
2019-06-10T00:21:26.240Z,92.75
2019-06-10T00:23:57.537Z,92.98
2019-06-10T00:26:30.737Z,92.74
2019-06-10T00:29:03.183Z,92.77
2019-06-10T00:31:34.871Z,92.89
2019-06-10T00:34:07.495Z,92.55
2019-06-10T00:36:41.239Z,92.46
2019-06-10T00:39:13.472Z,92.63
2019-06-10T00:41:45.043Z,92.78
2019-06-10T00:44:16.288Z,92.46
2019-06-10T00:46:47.453Z,92.73
2019-06-10T00:49:21.099Z,92.55
2019-06-10T00:51:51.471Z,92.87
2019-06-10T00:54:22.692Z,92.72
2019-06-10T00:56:53.858Z,93.12
2019-06-10T00:59:25.081Z,93.43
2019-06-10T01:01:56.247Z,93.17
2019-06-10T01:04:27.455Z,92.35
2019-06-10T01:07:00.737Z,92.00
2019-06-10T01:09:31.676Z,92.55
2019-06-10T01:12:02.955Z,92.28
2019-06-10T01:14:34.203Z,92.51
2019-06-10T01:17:05.562Z,92.57
2019-06-10T01:19:36.894Z,92.42
2019-06-10T01:22:10.691Z,92.84
2019-06-10T01:24:41.089Z,92.52
2019-06-10T01:27:14.995Z,92.00
2019-06-10T01:29:46.436Z,92.44
2019-06-10T01:32:17.756Z,92.68
2019-06-10T01:34:50.799Z,92.75
2019-06-10T01:37:22.187Z,92.77
2019-06-10T01:39:53.501Z,92.36
2019-06-10T01:42:24.707Z,92.50
2019-06-10T01:44:55.947Z,92.23
2019-06-10T01:47:27.139Z,92.77
2019-06-10T01:50:00.556Z,91.90
2019-06-10T01:52:31.710Z,91.52
2019-06-10T01:55:02.924Z,92.08
2019-06-10T01:57:34.107Z,92.02
2019-06-10T02:00:11.026Z,92.18
2019-06-10T02:02:44.053Z,92.38
2019-06-10T02:05:14.936Z,91.78
2019-06-10T02:07:45.817Z,92.36
2019-06-10T02:10:18.783Z,91.76
2019-06-10T02:12:50.883Z,91.54
2019-06-10T02:15:22.817Z,91.29
2019-06-10T02:17:54.127Z,91.19
2019-06-10T02:20:25.472Z,90.69
2019-06-10T02:22:56.727Z,90.48
2019-06-10T02:25:30.459Z,91.38
2019-06-10T02:28:02.058Z,91.27
2019-06-10T02:30:44.259Z,90.78
2019-06-10T02:33:06.156Z,90.17
2019-06-10T02:35:44.216Z,90.35
2019-06-10T02:38:10.261Z,90.76
2019-06-10T02:40:43.276Z,90.36
2019-06-10T02:43:20.808Z,90.94
2019-06-10T02:45:52.896Z,90.30
2019-06-10T02:48:30.121Z,90.22
2019-06-10T02:51:04.456Z,89.98
2019-06-10T02:53:37.346Z,90.45
2019-06-10T02:56:09.129Z,90.73
2019-06-10T02:58:44.863Z,91.49
2019-06-10T03:01:16.361Z,90.14
2019-06-10T03:03:49.734Z,90.65
2019-06-10T03:06:21.090Z,90.54
2019-06-10T03:08:54.887Z,91.03
2019-06-10T03:11:28.082Z,91.29
2019-06-10T03:13:57.825Z,91.26
2019-06-10T03:16:32.960Z,90.76
2019-06-10T03:19:03.489Z,89.91
2019-06-10T03:21:34.722Z,75.93
2019-06-10T03:24:05.910Z,77.16
2019-06-10T03:26:37.421Z,75.82
2019-06-10T03:29:09.557Z,70.88
2019-06-10T03:31:46.440Z,71.42
2019-06-10T03:34:14.886Z,72.56
2019-06-10T03:36:46.876Z,73.84
2019-06-10T03:39:18.640Z,79.14
2019-06-10T03:41:50.041Z,76.54
2019-06-10T03:44:23.548Z,72.99
2019-06-10T03:46:54.167Z,68.63
2019-06-10T03:49:27.058Z,67.08
2019-06-10T03:51:58.310Z,68.21
2019-06-10T03:54:29.646Z,64.92
2019-06-10T03:57:02.820Z,62.92
2019-06-10T03:59:33.778Z,63.48
2019-06-10T04:02:05.036Z,60.06
2019-06-10T04:04:36.221Z,61.89
2019-06-10T04:07:07.711Z,58.82
2019-06-10T04:09:38.922Z,59.03
2019-06-10T04:12:12.466Z,58.58
2019-06-10T04:14:43.123Z,60.04
2019-06-10T04:17:14.398Z,59.28
2019-06-10T04:19:45.590Z,57.42
2019-06-10T04:22:17.616Z,57.87
2019-06-10T04:24:48.782Z,57.72
2019-06-10T04:27:22.328Z,55.54
2019-06-10T04:29:52.965Z,55.02
2019-06-10T04:32:25.686Z,55.83
2019-06-10T04:34:57.048Z,54.57
2019-06-10T04:37:29.542Z,56.50
2019-06-10T04:40:02.844Z,55.61
2019-06-10T04:42:33.770Z,54.51
2019-06-10T04:45:05.905Z,53.77
2019-06-10T04:47:37.060Z,52.17
2019-06-10T04:50:20.771Z,52.96
2019-06-10T04:52:43.097Z,52.57
2019-06-10T04:55:14.431Z,51.86
2019-06-10T04:57:45.696Z,51.69
2019-06-10T05:00:17.096Z,50.56
2019-06-10T05:02:48.345Z,50.02
2019-06-10T05:05:19.531Z,50.06
2019-06-10T05:07:52.047Z,50.02
2019-06-10T05:10:25.247Z,50.37
2019-06-10T05:12:56.367Z,50.04
2019-06-10T05:15:28.431Z,49.48
2019-06-10T05:18:03.156Z,49.76
2019-06-10T05:20:51.085Z,48.73
2019-06-10T05:23:06.312Z,48.29
2019-06-10T05:25:37.510Z,48.67
2019-06-10T05:28:08.753Z,48.38
2019-06-10T05:30:42.475Z,49.27
2019-06-10T05:33:13.439Z,48.57
2019-06-10T05:35:44.748Z,48.04
2019-06-10T05:38:15.967Z,48.18
2019-06-10T05:40:47.126Z,48.02
2019-06-10T05:43:18.466Z,47.91
2019-06-10T05:45:49.700Z,48.35
2019-06-10T05:48:22.664Z,46.52
2019-06-10T05:51:02.238Z,47.42
2019-06-10T05:53:28.028Z,48.25
2019-06-10T05:56:02.039Z,48.00
2019-06-10T05:58:34.552Z,48.24
2019-06-10T06:01:05.464Z,48.60
2019-06-10T06:03:37.210Z,46.69
2019-06-10T06:06:08.417Z,46.96
2019-06-10T06:08:39.788Z,46.78
2019-06-10T06:11:12.655Z,47.44
2019-06-10T06:13:44.171Z,47.62
2019-06-10T06:16:15.379Z,46.92
2019-06-10T06:18:46.659Z,47.35
2019-06-10T06:21:25.499Z,46.07
2019-06-10T06:23:52.833Z,46.49
2019-06-10T06:26:24.017Z,45.93
2019-06-10T06:28:55.266Z,44.74
2019-06-10T06:31:26.540Z,46.34
2019-06-10T06:33:57.806Z,46.36
2019-06-10T06:36:28.999Z,46.94
2019-06-10T06:39:02.340Z,44.52
2019-06-10T06:41:34.521Z,45.57
2019-06-10T06:44:06.284Z,45.36
2019-06-10T06:46:42.967Z,46.93
2019-06-10T06:49:13.581Z,45.99
2019-06-10T06:51:54.845Z,45.83
2019-06-10T06:54:17.815Z,46.54
2019-06-10T06:56:49.011Z,45.54
2019-06-10T06:59:22.292Z,44.44
2019-06-10T07:01:53.142Z,42.61
2019-06-10T07:04:26.576Z,43.64
2019-06-10T07:06:57.766Z,41.64
2019-06-10T07:09:32.793Z,42.90
2019-06-10T07:12:05.396Z,42.54
2019-06-10T07:14:39.279Z,42.08
2019-06-10T07:17:12.698Z,41.30
2019-06-10T07:19:47.029Z,41.85
2019-06-10T07:22:20.403Z,41.27
2019-06-10T07:24:54.586Z,41.61
2019-06-10T07:27:27.259Z,41.44
2019-06-10T07:30:00.160Z,44.25
2019-06-10T07:32:34.177Z,41.46
2019-06-10T07:35:06.945Z,42.36
2019-06-10T07:37:39.502Z,42.92
2019-06-10T07:40:13.264Z,41.95
2019-06-10T07:42:53.057Z,39.86
2019-06-10T07:45:53.628Z,41.35
2019-06-10T07:48:33.479Z,39.35
2019-06-10T07:51:06.028Z,40.22
2019-06-10T07:53:38.661Z,38.65
2019-06-10T07:56:13.040Z,40.51
2019-06-10T07:58:54.768Z,39.29
2019-06-10T08:01:32.841Z,38.45
2019-06-10T08:04:04.807Z,38.65
2019-06-10T08:06:45.710Z,37.87
2019-06-10T08:09:22.755Z,36.38
2019-06-10T08:11:58.332Z,38.93
2019-06-10T08:14:33.112Z,38.20
2019-06-10T08:17:05.715Z,35.85
2019-06-10T08:19:41.673Z,38.48
2019-06-10T08:22:14.429Z,35.88
2019-06-10T08:24:45.472Z,34.67
2019-06-10T08:27:17.252Z,33.62
2019-06-10T08:29:49.788Z,32.61
2019-06-10T08:32:28.157Z,32.55
2019-06-10T08:35:03.698Z,32.41
2019-06-10T08:37:36.082Z,32.13
2019-06-10T08:40:07.502Z,32.42
2019-06-10T08:42:39.020Z,34.66
2019-06-10T08:45:12.559Z,30.35
2019-06-10T08:47:45.619Z,31.88
2019-06-10T08:50:16.558Z,33.01
2019-06-10T08:53:03.435Z,30.84
2019-06-10T08:55:24.627Z,29.92
2019-06-10T08:57:57.303Z,30.36
2019-06-10T09:00:29.040Z,30.99
2019-06-10T09:03:03.815Z,30.20
2019-06-10T09:05:46.184Z,29.67
2019-06-10T09:08:20.425Z,28.80
2019-06-10T09:10:54.266Z,29.60
2019-06-10T09:13:24.537Z,28.29
2019-06-10T09:16:10.965Z,28.40
2019-06-10T09:18:33.714Z,27.96
2019-06-10T09:21:07.010Z,28.48
2019-06-10T09:23:44.386Z,27.92
2019-06-10T09:26:14.235Z,27.71
2019-06-10T09:28:49.592Z,27.51
2019-06-10T09:31:18.623Z,27.69
2019-06-10T09:33:53.405Z,27.61
2019-06-10T09:36:28.097Z,28.23
2019-06-10T09:38:59.662Z,26.62
2019-06-10T09:41:43.239Z,28.44
2019-06-10T09:44:12.894Z,27.57
2019-06-10T09:47:06.570Z,27.04
2019-06-10T09:49:41.294Z,27.31
2019-06-10T09:52:13.675Z,26.92
2019-06-10T09:54:49.774Z,27.05
2019-06-10T09:57:18.504Z,26.95
2019-06-10T09:59:54.858Z,25.18
2019-06-10T10:02:23.018Z,26.10
2019-06-10T10:04:58.615Z,26.93
2019-06-10T10:07:32.425Z,26.29
2019-06-10T10:10:05.739Z,25.12
2019-06-10T10:12:36.929Z,24.62
2019-06-10T10:15:26.459Z,26.53
2019-06-10T10:17:44.809Z,25.63
2019-06-10T10:20:15.771Z,23.97
2019-06-10T10:22:49.263Z,23.42
2019-06-10T10:25:24.067Z,22.94
2019-06-10T10:27:57.563Z,21.98
2019-06-10T10:30:28.844Z,23.37
2019-06-10T10:33:02.856Z,22.68
2019-06-10T10:35:33.139Z,22.58
2019-06-10T10:38:05.201Z,22.23
2019-06-10T10:40:36.540Z,22.23
2019-06-10T10:43:24.481Z,21.93
2019-06-10T10:45:43.552Z,21.26
2019-06-10T10:48:14.189Z,20.49
2019-06-10T10:50:47.489Z,20.49
2019-06-10T10:53:19.552Z,20.98
2019-06-10T10:55:51.922Z,20.98
2019-06-10T10:58:23.533Z,22.84
2019-06-10T11:00:57.840Z,22.84
2019-06-10T11:03:30.123Z,21.42
2019-06-10T11:06:01.389Z,20.34
2019-06-10T11:08:33.599Z,20.03
2019-06-10T11:11:08.155Z,20.87
2019-06-10T11:13:43.265Z,21.82
2019-06-10T11:16:15.584Z,20.11
2019-06-10T11:18:47.184Z,23.14
2019-06-10T11:21:18.583Z,23.14
2019-06-10T11:23:50.222Z,21.74
2019-06-10T11:26:22.878Z,20.58
2019-06-10T11:28:55.796Z,20.72
2019-06-10T11:31:27.164Z,20.97
2019-06-10T11:34:03.136Z,22.27
2019-06-10T11:36:32.986Z,20.83
2019-06-10T11:39:06.016Z,20.44
2019-06-10T11:41:38.427Z,20.89
2019-06-10T11:44:09.617Z,21.54
2019-06-10T11:46:43.077Z,23.33
2019-06-10T11:49:13.842Z,21.04
2019-06-10T11:51:45.128Z,20.29
2019-06-10T11:54:23.235Z,20.33
2019-06-10T11:57:06.834Z,20.87
2019-06-10T11:59:48.026Z,21.78
2019-06-10T12:02:30.213Z,20.81
2019-06-10T12:05:20.303Z,22.54
2019-06-10T12:08:08.204Z,20.71
2019-06-10T12:10:39.438Z,19.24
2019-06-10T12:13:13.404Z,19.78
2019-06-10T12:16:20.726Z,20.64
2019-06-10T12:18:17.698Z,20.05
2019-06-10T12:20:49.611Z,19.33
2019-06-10T12:23:22.197Z,19.57
2019-06-10T12:25:56.224Z,20.60
2019-06-10T12:28:27.435Z,20.93
2019-06-10T12:31:02.881Z,21.48
2019-06-10T12:33:34.844Z,21.56
2019-06-10T12:36:08.642Z,20.22
2019-06-10T12:38:43.861Z,21.30
2019-06-10T12:41:16.056Z,21.42
2019-06-10T12:43:47.438Z,23.02
2019-06-10T12:46:19.270Z,22.63
2019-06-10T12:48:53.153Z,21.03
2019-06-10T12:51:23.554Z,22.18
2019-06-10T12:53:55.343Z,23.50
2019-06-10T12:56:29.034Z,20.19
2019-06-10T12:59:02.823Z,20.50
2019-06-10T13:01:33.188Z,23.28
2019-06-10T13:04:09.430Z,21.53
2019-06-10T13:06:42.617Z,21.05
2019-06-10T13:09:14.750Z,22.11
2019-06-10T13:11:46.158Z,21.19
2019-06-10T13:14:18.415Z,21.62
2019-06-10T13:16:52.475Z,21.35
2019-06-10T13:19:23.600Z,22.01
2019-06-10T13:21:55.179Z,21.53
2019-06-10T13:24:26.574Z,22.64
2019-06-10T13:26:58.748Z,21.37
2019-06-10T13:29:33.148Z,21.17
2019-06-10T13:32:08.794Z,21.27
2019-06-10T13:34:42.446Z,22.69
2019-06-10T13:37:16.134Z,21.09
2019-06-10T13:39:48.509Z,21.77
2019-06-10T13:42:22.763Z,22.08
2019-06-10T13:44:54.945Z,23.55
2019-06-10T13:47:26.224Z,22.90
2019-06-10T13:49:58.907Z,23.62
2019-06-10T13:52:32.121Z,23.92
2019-06-10T13:55:07.537Z,23.30
2019-06-10T13:57:39.120Z,24.14
2019-06-10T14:00:12.365Z,25.31
2019-06-10T14:02:44.020Z,24.87
2019-06-10T14:05:18.323Z,24.29
2019-06-10T14:07:49.227Z,26.04
2019-06-10T14:10:22.625Z,24.80
2019-06-10T14:12:53.416Z,24.56
2019-06-10T14:15:24.609Z,24.32
2019-06-10T14:17:56.464Z,23.89
2019-06-10T14:20:28.486Z,24.21
2019-06-10T14:22:59.673Z,24.60
2019-06-10T14:25:33.069Z,26.05
2019-06-10T14:28:07.675Z,24.98
2019-06-10T14:30:37.809Z,26.14
2019-06-10T14:33:09.403Z,25.74
2019-06-10T14:35:42.923Z,24.75
2019-06-10T14:38:15.853Z,25.85
2019-06-10T14:40:52.513Z,25.81
2019-06-10T14:43:26.674Z,24.81
2019-06-10T14:45:57.908Z,25.66
2019-06-10T14:48:29.448Z,24.93
2019-06-10T14:51:03.291Z,25.80
2019-06-10T14:53:35.424Z,25.47
2019-06-10T14:56:09.329Z,25.62
2019-06-10T14:58:42.441Z,25.40
2019-06-10T15:01:24.146Z,26.00
2019-06-10T15:03:47.386Z,25.79
2019-06-10T15:06:19.984Z,26.47
2019-06-10T15:08:53.304Z,26.12
2019-06-10T15:11:27.536Z,26.06
2019-06-10T15:13:57.259Z,26.74
2019-06-10T15:16:28.673Z,26.96
2019-06-10T15:19:11.823Z,27.45
2019-06-10T15:21:33.373Z,27.60
2019-06-10T15:24:04.543Z,27.93
2019-06-10T15:26:35.831Z,27.70
2019-06-10T15:29:07.427Z,28.39
2019-06-10T15:31:38.658Z,28.04
2019-06-10T15:34:11.200Z,28.63
2019-06-10T15:36:43.233Z,29.26
2019-06-10T15:39:16.755Z,29.33
2019-06-10T15:41:47.447Z,30.04
2019-06-10T15:44:37.352Z,28.33
2019-06-10T15:46:52.493Z,27.70
2019-06-10T15:49:25.969Z,27.16
2019-06-10T15:51:56.564Z,27.31
2019-06-10T15:54:27.723Z,27.17
2019-06-10T15:56:59.017Z,27.49
2019-06-10T15:59:30.191Z,27.51
2019-06-10T16:02:02.548Z,28.04
2019-06-10T16:04:35.329Z,27.31
2019-06-10T16:07:06.682Z,27.43
2019-06-10T16:09:37.880Z,27.72
2019-06-10T16:12:09.086Z,27.51
2019-06-10T16:14:42.427Z,28.06
2019-06-10T16:17:14.532Z,27.99
2019-06-10T16:19:45.955Z,28.00
2019-06-10T16:22:17.405Z,28.59
2019-06-10T16:24:48.579Z,28.59
2019-06-10T16:27:22.291Z,29.07
2019-06-10T16:29:53.052Z,28.74
2019-06-10T16:32:26.409Z,28.77
2019-06-10T16:34:57.169Z,28.88
2019-06-10T16:37:28.400Z,29.52
2019-06-10T16:39:59.588Z,29.50
2019-06-10T16:42:32.155Z,29.77
2019-06-10T16:45:04.294Z,29.97
2019-06-10T16:47:35.532Z,29.76
2019-06-10T16:50:07.516Z,30.43
2019-06-10T16:52:38.775Z,30.55
2019-06-10T16:55:12.592Z,31.07
2019-06-10T16:57:56.251Z,31.52
2019-06-10T17:00:16.305Z,31.64
2019-06-10T17:02:47.527Z,31.87
2019-06-10T17:05:18.985Z,32.26
2019-06-10T17:07:52.446Z,32.95
2019-06-10T17:10:24.071Z,33.35
2019-06-10T17:13:03.678Z,33.73
2019-06-10T17:15:34.881Z,34.12
2019-06-10T17:18:06.212Z,34.01
2019-06-10T17:20:37.377Z,33.42
2019-06-10T17:23:27.189Z,34.02
2019-06-10T17:25:58.127Z,34.21
2019-06-10T17:28:33.917Z,34.10
2019-06-10T17:31:03.899Z,34.64
2019-06-10T17:33:36.129Z,35.68
2019-06-10T17:36:07.402Z,35.73
2019-06-10T17:38:38.622Z,34.92
2019-06-10T17:41:09.822Z,35.48
2019-06-10T17:43:42.920Z,35.51
2019-06-10T17:46:16.347Z,34.16
2019-06-10T17:48:47.556Z,34.65
2019-06-10T17:51:18.747Z,35.29
2019-06-10T17:53:49.880Z,35.19
2019-06-10T17:56:24.245Z,35.41
2019-06-10T17:58:57.909Z,35.62
2019-06-10T18:01:27.172Z,36.27
2019-06-10T18:03:58.424Z,36.52
2019-06-10T18:06:29.747Z,36.90
2019-06-10T18:09:00.968Z,37.47
2019-06-10T18:11:34.107Z,39.80
2019-06-10T18:14:05.285Z,40.10
2019-06-10T18:16:36.746Z,38.49
2019-06-10T18:19:08.064Z,37.75
2019-06-10T18:21:39.410Z,38.66
2019-06-10T18:24:12.750Z,37.88
2019-06-10T18:26:43.500Z,38.77
2019-06-10T18:29:14.719Z,37.95
2019-06-10T18:31:45.883Z,38.22
2019-06-10T18:34:17.022Z,37.92
2019-06-10T18:36:48.132Z,37.82
2019-06-10T18:39:19.392Z,38.00
2019-06-10T18:41:52.753Z,37.72
2019-06-10T18:44:26.451Z,38.06
2019-06-10T18:46:57.147Z,38.08
2019-06-10T18:49:28.373Z,38.23
2019-06-10T18:51:59.561Z,38.65
2019-06-10T18:54:33.892Z,39.26
2019-06-10T18:57:03.723Z,39.50
2019-06-10T18:59:36.627Z,39.24
2019-06-10T19:02:07.901Z,39.68
2019-06-10T19:04:40.121Z,39.05
2019-06-10T19:07:11.409Z,39.30
2019-06-10T19:09:47.789Z,39.24
2019-06-10T19:12:15.519Z,39.14
2019-06-10T19:14:46.757Z,39.39
2019-06-10T19:17:17.969Z,39.70
2019-06-10T19:19:49.206Z,40.13
2019-06-10T19:22:22.388Z,40.07
2019-06-10T19:24:53.326Z,40.15
2019-06-10T19:27:24.517Z,40.30
2019-06-10T19:29:55.850Z,40.48
2019-06-10T19:32:27.042Z,40.74
2019-06-10T19:34:58.265Z,40.63
2019-06-10T19:37:29.449Z,41.04
2019-06-10T19:40:00.689Z,40.85
2019-06-10T19:42:32.968Z,41.26
2019-06-10T19:45:07.348Z,41.14
2019-06-10T19:47:40.735Z,40.99
2019-06-10T19:50:12.914Z,41.48
2019-06-10T19:52:45.516Z,44.22
2019-06-10T19:55:17.009Z,45.24
2019-06-10T19:57:48.172Z,45.19
2019-06-10T20:00:22.062Z,45.91
2019-06-10T20:02:52.818Z,47.23
2019-06-10T20:05:24.243Z,46.71
2019-06-10T20:07:55.413Z,44.09
2019-06-10T20:10:26.577Z,45.04
2019-06-10T20:12:57.759Z,44.12
2019-06-10T20:15:28.992Z,46.84
2019-06-10T20:18:02.687Z,44.90
2019-06-10T20:20:33.396Z,47.61
2019-06-10T20:23:08.467Z,47.68
2019-06-10T20:25:38.447Z,47.17
2019-06-10T20:28:09.665Z,49.67
2019-06-10T20:30:43.330Z,47.87
2019-06-10T20:33:15.237Z,48.88
2019-06-10T20:35:46.532Z,50.32
2019-06-10T20:38:17.640Z,51.26
2019-06-10T20:40:48.933Z,49.60
2019-06-10T20:43:22.293Z,49.82
2019-06-10T20:45:53.060Z,51.86
2019-06-10T20:48:24.601Z,52.45
2019-06-10T20:50:56.100Z,52.66
2019-06-10T20:53:27.264Z,52.48
2019-06-10T20:55:58.524Z,53.89
2019-06-10T20:58:29.694Z,53.89
2019-06-10T21:01:04.002Z,52.88
2019-06-10T21:03:34.073Z,52.08
2019-06-10T21:06:05.604Z,52.88
2019-06-10T21:08:37.295Z,54.41
2019-06-10T21:11:08.526Z,55.56
2019-06-10T21:13:40.038Z,54.09
2019-06-10T21:16:12.657Z,55.03
2019-06-10T21:18:47.402Z,53.34
2019-06-10T21:21:16.894Z,55.63
2019-06-10T21:23:49.020Z,54.71
2019-06-10T21:26:20.282Z,56.34
2019-06-10T21:28:54.938Z,56.66
2019-06-10T21:31:24.439Z,56.52
2019-06-10T21:33:56.069Z,56.79
2019-06-10T21:36:27.325Z,57.07
2019-06-10T21:38:58.533Z,58.85
2019-06-10T21:41:29.745Z,58.42
2019-06-10T21:44:03.059Z,59.81
2019-06-10T21:46:33.779Z,59.99
2019-06-10T21:49:05.844Z,59.31
2019-06-10T21:51:37.074Z,59.88
2019-06-10T21:54:08.247Z,60.65
2019-06-10T21:56:39.469Z,62.84
2019-06-10T21:59:12.584Z,61.83
2019-06-10T22:01:44.925Z,61.88
2019-06-10T22:04:16.593Z,62.17
2019-06-10T22:06:47.738Z,63.20
2019-06-10T22:09:18.952Z,62.77
2019-06-10T22:11:52.540Z,63.21
2019-06-10T22:14:22.952Z,62.80
2019-06-10T22:16:56.260Z,63.69
2019-06-10T22:19:27.092Z,63.67
2019-06-10T22:21:58.805Z,63.94
2019-06-10T22:24:29.975Z,64.78
2019-06-10T22:27:02.721Z,64.99
2019-06-10T22:29:34.024Z,64.92
2019-06-10T22:32:05.269Z,64.54
2019-06-10T22:34:36.447Z,64.70
2019-06-10T22:37:07.658Z,64.94
2019-06-10T22:39:38.818Z,64.39
2019-06-10T22:42:11.906Z,65.55
2019-06-10T22:44:42.879Z,64.03
2019-06-10T22:47:14.146Z,64.66
2019-06-10T22:49:46.169Z,65.53
2019-06-10T22:52:17.331Z,65.70
2019-06-10T22:54:49.650Z,65.59
2019-06-10T22:57:22.138Z,66.17
2019-06-10T22:59:55.050Z,66.68
2019-06-10T23:02:26.324Z,66.61
2019-06-10T23:04:59.458Z,66.70
2019-06-10T23:07:32.855Z,65.75
2019-06-10T23:10:04.411Z,65.92
2019-06-10T23:12:35.727Z,67.56
2019-06-10T23:15:10.035Z,66.88
2019-06-10T23:17:42.333Z,67.73
2019-06-10T23:20:13.808Z,66.98
2019-06-10T23:22:45.047Z,66.42
2019-06-10T23:25:16.224Z,66.24
2019-06-10T23:27:47.586Z,67.12
2019-06-10T23:30:18.877Z,67.47
2019-06-10T23:32:50.118Z,67.12
2019-06-10T23:35:23.124Z,67.37
2019-06-10T23:37:56.882Z,67.38
2019-06-10T23:40:27.129Z,67.40
2019-06-10T23:42:58.982Z,67.41
2019-06-10T23:45:32.602Z,67.79
2019-06-10T23:48:04.896Z,67.90
2019-06-10T23:50:36.375Z,68.36
2019-06-10T23:53:08.041Z,68.22
2019-06-10T23:55:39.273Z,69.16
2019-06-10T23:58:12.654Z,68.36
